Terminal Aerodrome Forecast
Issued by NWS Sioux Falls, SD

Home | Current Version | Previous Version | Graphics & Text | Print | Product List | Glossary On
Versions: 1 2 3 4 5 6 7 8 9 10 11 12 13
000
FTUS43 KFSD 020534
TAFFSD
TAF
KFSD 020534Z 0206/0306 VRB03KT P6SM SCT200
     FM021100 17005KT P6SM BKN200
     FM021700 16013G18KT P6SM BKN110
     FM022200 17016G24KT P6SM BKN080
     FM030300 17013G19KT 6SM BR OVC015=

USA.gov is the U.S. government's official web portal to all federal, state and local government web resources and services.